Time;durP1;ratioP1;P1;durP2;ratioP2;P2;SDS_P1;SDS_P2;PMS_P1;PMS_P2;Temp;Humidity;BMP_temperature;BMP_pressure;BME280_temperature;BME280_humidity;BME280_pressure;Samples;Min_cycle;Max_cycle;Signal;HPM_P1;HPM_P2
2022/03/16 00:00:00;;;;;;;35.75;22.23;;;7.00;99.90;;;;;;5035262;28;20049;-66
2022/03/16 00:02:26;;;;;;;35.63;21.83;;;6.60;99.90;;;;;;5037251;28;20124;-66
2022/03/16 00:04:53;;;;;;;36.17;21.85;;;6.50;99.90;;;;;;5036467;28;20046;-66
2022/03/16 00:07:20;;;;;;;34.47;21.55;;;6.40;99.90;;;;;;5035511;28;20096;-67
2022/03/16 00:09:47;;;;;;;35.90;22.25;;;7.20;99.90;;;;;;5036329;28;20120;-67
2022/03/16 00:12:13;;;;;;;32.58;21.02;;;6.40;99.90;;;;;;5036083;28;20049;-67
2022/03/16 00:14:40;;;;;;;32.85;20.05;;;6.40;99.90;;;;;;5037014;28;20049;-67
2022/03/16 00:17:06;;;;;;;37.45;21.13;;;6.70;99.90;;;;;;5036165;28;20038;-66
2022/03/16 00:19:33;;;;;;;31.45;19.52;;;6.30;99.90;;;;;;5036673;28;20045;-67
2022/03/16 00:22:00;;;;;;;33.83;19.95;;;6.20;99.90;;;;;;5036333;28;20143;-67
2022/03/16 00:24:26;;;;;;;32.80;19.85;;;7.10;99.90;;;;;;5035364;28;20049;-67
2022/03/16 00:26:52;;;;;;;33.88;20.08;;;6.30;99.90;;;;;;5036184;28;20473;-67
2022/03/16 00:29:18;;;;;;;30.15;19.48;;;6.30;99.90;;;;;;5035963;28;20128;-67
2022/03/16 00:31:44;;;;;;;33.72;19.90;;;6.20;99.90;;;;;;5034484;28;20061;-67
2022/03/16 00:34:09;;;;;;;31.17;19.98;;;6.20;99.90;;;;;;5035515;28;20054;-67
2022/03/16 00:36:35;;;;;;;34.15;19.75;;;6.60;99.90;;;;;;5035809;28;20103;-66
2022/03/16 00:39:01;;;;;;;28.38;18.35;;;6.00;99.90;;;;;;5035446;28;20049;-66
2022/03/16 00:41:26;;;;;;;29.77;18.60;;;6.20;99.90;;;;;;5035968;28;20049;-66
2022/03/16 00:43:53;;;;;;;28.65;19.02;;;6.50;99.90;;;;;;5035657;28;20049;-67
2022/03/16 00:46:19;;;;;;;31.75;19.08;;;6.10;99.90;;;;;;5035869;28;20049;-67
2022/03/16 00:48:45;;;;;;;33.58;19.48;;;6.30;99.90;;;;;;5036325;28;20374;-66
2022/03/16 00:51:11;;;;;;;30.83;19.40;;;6.10;99.90;;;;;;5035594;28;20064;-67
2022/03/16 00:53:39;;;;;;;30.70;18.77;;;6.00;99.90;;;;;;5035444;28;20045;-66
2022/03/16 00:56:06;;;;;;;29.42;18.48;;;6.60;99.90;;;;;;5035128;28;20493;-66
2022/03/16 00:58:32;;;;;;;30.40;17.85;;;6.10;99.90;;;;;;5035924;28;20050;-66
2022/03/16 01:00:59;;;;;;;29.67;18.13;;;6.00;99.90;;;;;;5034933;28;20099;-67
2022/03/16 01:03:25;;;;;;;28.23;18.05;;;6.00;99.90;;;;;;5035292;28;20132;-67
2022/03/16 01:05:51;;;;;;;31.95;19.58;;;5.90;99.90;;;;;;5035315;28;20060;-67
2022/03/16 01:08:17;;;;;;;28.50;17.20;;;6.20;99.90;;;;;;5035148;28;20474;-67
2022/03/16 01:10:43;;;;;;;29.85;17.65;;;5.90;99.90;;;;;;5033695;28;20045;-67
2022/03/16 01:13:08;;;;;;;29.20;18.15;;;6.40;99.90;;;;;;5033949;28;20049;-67
2022/03/16 01:15:34;;;;;;;29.85;16.85;;;6.10;99.90;;;;;;5033933;28;20056;-67
2022/03/16 01:18:00;;;;;;;27.88;17.17;;;5.90;99.90;;;;;;5034838;28;20049;-66
2022/03/16 01:20:26;;;;;;;26.05;16.35;;;5.90;99.90;;;;;;5035013;28;20045;-66
2022/03/16 01:22:51;;;;;;;27.25;16.85;;;5.80;99.90;;;;;;5033977;28;20081;-66
2022/03/16 01:25:17;;;;;;;31.33;17.65;;;6.30;99.90;;;;;;5034828;28;20473;-66
2022/03/16 01:27:43;;;;;;;29.48;17.75;;;5.80;99.90;;;;;;5018109;28;20049;-66
2022/03/16 01:30:09;;;;;;;27.08;16.98;;;5.80;99.90;;;;;;5035336;28;20046;-66
2022/03/16 01:32:35;;;;;;;31.17;17.38;;;5.80;99.90;;;;;;5033234;28;20502;-66
2022/03/16 01:35:00;;;;;;;25.08;15.90;;;5.80;99.90;;;;;;5034423;28;20061;-67
2022/03/16 01:37:26;;;;;;;28.10;17.35;;;5.80;99.90;;;;;;5033745;28;20128;-67
2022/03/16 01:39:52;;;;;;;26.52;16.10;;;5.80;99.90;;;;;;5035123;28;20052;-67
2022/03/16 01:42:17;;;;;;;23.73;16.15;;;5.70;99.90;;;;;;5035097;28;20041;-66
2022/03/16 01:44:46;;;;;;;27.63;16.10;;;6.00;99.90;;;;;;5034818;28;20456;-66
2022/03/16 01:53:37;;;;;;;29.17;16.27;;;5.60;99.90;;;;;;5254720;22;20516;-66
2022/03/16 01:56:03;;;;;;;29.65;15.57;;;5.60;99.90;;;;;;5030278;28;20053;-66
2022/03/16 01:58:28;;;;;;;26.70;16.17;;;5.50;99.90;;;;;;5032877;28;20041;-66
2022/03/16 02:00:54;;;;;;;27.35;15.95;;;6.00;99.90;;;;;;5032941;28;20516;-67
2022/03/16 02:03:20;;;;;;;25.38;16.75;;;5.30;99.90;;;;;;5033036;28;20037;-66
2022/03/16 02:05:46;;;;;;;25.85;15.25;;;5.50;99.90;;;;;;5034761;28;20041;-66
2022/03/16 02:08:12;;;;;;;26.90;15.90;;;5.60;99.90;;;;;;5033985;28;20041;-66
2022/03/16 02:10:40;;;;;;;25.48;15.38;;;5.50;99.90;;;;;;5034123;28;20167;-67
2022/03/16 02:13:09;;;;;;;22.95;15.27;;;5.90;99.90;;;;;;5034038;28;20046;-66
2022/03/16 02:15:34;;;;;;;25.88;15.75;;;6.90;99.90;;;;;;5033936;28;20085;-67
2022/03/16 02:18:00;;;;;;;27.50;15.82;;;5.40;99.90;;;;;;5032721;28;20123;-67
2022/03/16 02:20:27;;;;;;;26.52;15.80;;;5.40;99.90;;;;;;5033902;28;20485;-66
2022/03/16 02:22:57;;;;;;;27.08;15.82;;;5.30;99.90;;;;;;5033177;28;20045;-66
2022/03/16 02:25:28;;;;;;;25.85;14.85;;;5.30;99.90;;;;;;5033523;28;20077;-66
2022/03/16 02:27:54;;;;;;;23.58;14.63;;;5.30;99.90;;;;;;5033735;28;20037;-66
2022/03/16 02:30:25;;;;;;;28.23;15.63;;;5.20;99.90;;;;;;5033714;28;20045;-67
2022/03/16 02:32:51;;;;;;;23.50;14.63;;;5.50;99.90;;;;;;5033704;28;20046;-66
2022/03/16 02:35:17;;;;;;;26.05;15.30;;;5.20;99.90;;;;;;5032384;28;20140;-66
2022/03/16 02:37:43;;;;;;;26.05;15.85;;;6.00;99.90;;;;;;5033641;28;20091;-66
2022/03/16 02:40:11;;;;;;;28.38;16.05;;;5.10;99.90;;;;;;5033611;28;20111;-67
2022/03/16 02:42:38;;;;;;;24.67;15.30;;;5.10;99.90;;;;;;5032774;28;20399;-66
2022/03/16 02:45:05;;;;;;;27.75;16.63;;;5.30;99.90;;;;;;5033725;28;20060;-67
2022/03/16 02:47:31;;;;;;;26.48;15.85;;;5.10;99.90;;;;;;5031911;28;20049;-66
2022/03/16 02:49:57;;;;;;;24.88;15.18;;;5.30;99.90;;;;;;5033558;28;20136;-67
2022/03/16 02:52:23;;;;;;;26.88;15.20;;;5.00;99.90;;;;;;5032661;28;20061;-66
2022/03/16 02:54:51;;;;;;;24.10;15.73;;;5.50;99.90;;;;;;5033485;28;20056;-67
2022/03/16 02:57:17;;;;;;;23.45;14.05;;;5.20;99.90;;;;;;5033502;28;20049;-67
2022/03/16 02:59:43;;;;;;;24.33;15.38;;;5.10;99.90;;;;;;5032324;28;20197;-67
2022/03/16 03:02:10;;;;;;;21.30;13.77;;;5.70;99.90;;;;;;5033415;28;20045;-67
2022/03/16 03:04:36;;;;;;;27.25;15.73;;;5.10;99.90;;;;;;5033301;28;20118;-67
2022/03/16 03:07:03;;;;;;;23.98;14.90;;;4.90;99.90;;;;;;5033831;28;20045;-67
2022/03/16 03:09:28;;;;;;;26.33;15.57;;;4.90;99.90;;;;;;5032969;28;20482;-66
2022/03/16 03:11:55;;;;;;;26.20;15.10;;;5.50;99.90;;;;;;5033609;28;20045;-67
2022/03/16 03:14:21;;;;;;;25.98;15.05;;;4.90;99.90;;;;;;5032114;28;20056;-67
2022/03/16 03:16:49;;;;;;;22.30;14.70;;;5.50;99.90;;;;;;5033686;28;20397;-67
2022/03/16 03:19:15;;;;;;;24.23;15.23;;;5.70;99.90;;;;;;5031870;28;20374;-66
2022/03/16 03:21:41;;;;;;;27.50;15.70;;;4.90;99.90;;;;;;5032250;28;20056;-67
2022/03/16 03:24:07;;;;;;;28.13;14.48;;;4.80;99.90;;;;;;5032640;28;20405;-66
2022/03/16 03:26:33;;;;;;;23.38;15.00;;;4.70;99.90;;;;;;5033144;28;20057;-67
2022/03/16 03:28:58;;;;;;;27.83;15.52;;;5.50;99.90;;;;;;5031861;28;20045;-67
2022/03/16 03:31:24;;;;;;;24.10;15.85;;;5.20;99.90;;;;;;5033061;28;20048;-67
2022/03/16 03:33:50;;;;;;;26.95;16.88;;;4.90;99.90;;;;;;5032098;28;20100;-67
2022/03/16 03:36:15;;;;;;;29.15;15.95;;;5.60;99.90;;;;;;5033059;28;20095;-67
2022/03/16 03:38:41;;;;;;;27.52;15.38;;;5.20;99.90;;;;;;5032087;28;20053;-67
2022/03/16 03:41:07;;;;;;;25.75;15.18;;;4.90;99.90;;;;;;5032936;28;20049;-67
2022/03/16 03:43:32;;;;;;;26.77;15.75;;;4.90;99.90;;;;;;5032994;28;20093;-67
2022/03/16 03:45:58;;;;;;;25.95;15.27;;;4.80;99.90;;;;;;5032077;28;20470;-67
2022/03/16 03:48:24;;;;;;;26.35;16.10;;;5.10;99.90;;;;;;5031722;28;20063;-67
2022/03/16 03:50:49;;;;;;;25.40;15.20;;;5.20;99.90;;;;;;5031902;28;20077;-67
2022/03/16 03:53:16;;;;;;;28.00;16.20;;;4.70;99.90;;;;;;5032300;28;20137;-67
2022/03/16 03:55:42;;;;;;;27.73;15.82;;;4.90;99.90;;;;;;5032844;28;20057;-67
2022/03/16 03:58:07;;;;;;;26.00;16.55;;;5.20;99.90;;;;;;5032222;28;20057;-68
2022/03/16 04:00:33;;;;;;;29.27;16.67;;;4.80;99.90;;;;;;5034896;28;20461;-67
2022/03/16 04:02:59;;;;;;;28.73;16.38;;;5.40;99.90;;;;;;5036339;28;20132;-67
2022/03/16 04:05:25;;;;;;;28.10;16.17;;;4.80;99.90;;;;;;5036415;28;20128;-67
2022/03/16 04:07:51;;;;;;;24.77;15.80;;;4.90;99.90;;;;;;5036185;28;20099;-67
2022/03/16 04:10:17;;;;;;;26.70;15.50;;;4.90;99.90;;;;;;5018800;28;20034;-67
2022/03/16 04:12:43;;;;;;;27.80;16.00;;;4.80;99.90;;;;;;5036261;28;20136;-67
2022/03/16 04:15:09;;;;;;;26.92;16.40;;;4.80;99.90;;;;;;5036186;28;20077;-67
2022/03/16 04:17:35;;;;;;;29.48;16.67;;;4.80;99.90;;;;;;5036296;28;20049;-67
2022/03/16 04:20:01;;;;;;;29.50;16.77;;;5.30;99.90;;;;;;5035730;28;20045;-67
2022/03/16 04:22:27;;;;;;;23.90;15.50;;;5.10;99.90;;;;;;5035402;28;20145;-67
2022/03/16 04:24:54;;;;;;;24.30;15.25;;;5.80;99.90;;;;;;5035959;28;20053;-67
2022/03/16 04:27:20;;;;;;;26.55;16.65;;;6.50;99.90;;;;;;5035821;28;20087;-67
2022/03/16 04:29:46;;;;;;;33.38;17.08;;;5.40;99.90;;;;;;5035845;28;20081;-67
2022/03/16 04:32:12;;;;;;;30.25;16.30;;;5.30;99.90;;;;;;5034593;28;20049;-67
2022/03/16 04:34:38;;;;;;;29.70;16.63;;;5.30;99.90;;;;;;5035805;28;20091;-67
2022/03/16 04:37:04;;;;;;;32.00;17.60;;;4.50;99.90;;;;;;5035773;28;20099;-67
2022/03/16 04:39:30;;;;;;;30.50;17.55;;;4.70;99.90;;;;;;5035687;28;20050;-67
2022/03/16 04:41:56;;;;;;;28.45;16.50;;;4.70;99.90;;;;;;5035705;28;20045;-67
2022/03/16 04:44:22;;;;;;;30.35;18.50;;;4.50;99.90;;;;;;5035635;28;20049;-67
2022/03/16 04:46:48;;;;;;;31.25;17.95;;;4.80;99.90;;;;;;5035506;28;20059;-67
2022/03/16 04:49:13;;;;;;;31.13;18.00;;;4.80;99.90;;;;;;5017906;28;20048;-67
2022/03/16 04:51:40;;;;;;;33.17;17.38;;;4.60;99.90;;;;;;5035838;28;20053;-67
2022/03/16 04:54:07;;;;;;;31.33;18.15;;;5.50;99.90;;;;;;5035060;28;20065;-67
2022/03/16 04:56:35;;;;;;;28.92;16.80;;;4.70;99.90;;;;;;5035367;28;20061;-67
2022/03/16 04:59:03;;;;;;;29.70;17.02;;;4.80;99.90;;;;;;5035318;28;20037;-67
2022/03/16 05:01:30;;;;;;;32.22;17.75;;;4.70;99.90;;;;;;5035288;28;20049;-67
2022/03/16 05:03:56;;;;;;;32.10;17.40;;;4.80;99.90;;;;;;5035234;28;20046;-67
2022/03/16 05:06:21;;;;;;;31.27;18.27;;;4.90;99.90;;;;;;5035176;28;20140;-67
2022/03/16 05:08:47;;;;;;;31.17;17.15;;;4.90;99.90;;;;;;5017365;28;20037;-67
2022/03/16 05:11:20;;;;;;;30.02;16.88;;;4.80;99.90;;;;;;5034235;28;20049;-67
2022/03/16 05:13:46;;;;;;;33.42;18.45;;;4.90;99.90;;;;;;5035284;28;20446;-67
2022/03/16 05:16:12;;;;;;;29.73;18.42;;;5.50;99.90;;;;;;5035016;28;20164;-67
2022/03/16 05:18:40;;;;;;;30.40;17.52;;;5.60;99.90;;;;;;5034059;28;20077;-67
2022/03/16 05:21:08;;;;;;;34.10;17.23;;;5.00;99.90;;;;;;5034898;28;20049;-67
2022/03/16 05:23:35;;;;;;;29.73;16.27;;;4.90;99.90;;;;;;5033033;28;20110;-67
2022/03/16 05:26:01;;;;;;;24.63;15.35;;;5.00;99.90;;;;;;5035033;28;20049;-67
2022/03/16 05:28:26;;;;;;;26.27;16.60;;;4.90;99.90;;;;;;5034705;28;20453;-67
2022/03/16 05:30:52;;;;;;;30.17;17.17;;;5.10;99.90;;;;;;5034947;28;20045;-67
2022/03/16 05:33:18;;;;;;;29.02;16.73;;;5.10;99.90;;;;;;5034765;28;20414;-67
2022/03/16 05:35:44;;;;;;;29.40;16.23;;;5.10;99.90;;;;;;5033457;28;20100;-67
2022/03/16 05:38:13;;;;;;;29.70;15.88;;;5.50;99.90;;;;;;5033384;28;20042;-67
2022/03/16 05:40:40;;;;;;;28.25;16.75;;;5.20;99.90;;;;;;5034900;28;20045;-68
2022/03/16 05:43:06;;;;;;;33.10;17.52;;;5.00;99.90;;;;;;5034548;28;20132;-67
2022/03/16 05:45:32;;;;;;;30.85;16.60;;;5.00;99.90;;;;;;5034494;28;20160;-67
2022/03/16 05:47:58;;;;;;;31.50;17.77;;;5.00;99.90;;;;;;5033151;28;20100;-67
2022/03/16 05:50:28;;;;;;;32.95;16.90;;;5.10;99.90;;;;;;5033332;28;20041;-67
2022/03/16 05:52:55;;;;;;;26.92;15.18;;;5.00;99.90;;;;;;5032269;28;20057;-67
2022/03/16 05:55:21;;;;;;;27.58;16.50;;;5.10;99.90;;;;;;5033365;28;20057;-67
2022/03/16 05:57:48;;;;;;;30.30;17.15;;;5.30;99.90;;;;;;5034239;28;20048;-67
2022/03/16 06:00:14;;;;;;;28.33;17.25;;;5.00;99.90;;;;;;5016865;28;20053;-67
2022/03/16 06:02:44;;;;;;;28.92;16.48;;;5.00;99.90;;;;;;5034083;28;20084;-67
2022/03/16 06:05:11;;;;;;;31.65;16.25;;;5.60;99.90;;;;;;5034108;28;20449;-68
2022/03/16 06:07:37;;;;;;;27.75;16.42;;;5.40;99.90;;;;;;5033968;28;20045;-67
2022/03/16 06:10:09;;;;;;;27.27;15.75;;;5.50;99.90;;;;;;5033985;28;20049;-67
2022/03/16 06:13:09;;;;;;;30.67;17.20;;;5.00;99.90;;;;;;5034095;28;20456;-67
2022/03/16 06:15:42;;;;;;;27.73;16.27;;;5.20;99.90;;;;;;5033264;28;20057;-68
2022/03/16 06:18:08;;;;;;;;;;;5.60;99.90;;;;;;5034304;28;20045;-68
2022/03/16 06:20:34;;;;;;;28.02;15.35;;;5.30;99.90;;;;;;5034173;28;20050;-67
2022/03/16 06:23:01;;;;;;;30.42;16.73;;;5.10;99.90;;;;;;5032792;28;20052;-67
2022/03/16 06:25:27;;;;;;;30.88;18.35;;;5.20;99.90;;;;;;5033506;28;20056;-67
2022/03/16 06:27:53;;;;;;;26.85;17.15;;;5.10;99.90;;;;;;5016250;28;20116;-68
2022/03/16 06:30:19;;;;;;;28.58;16.25;;;5.00;99.90;;;;;;5033803;28;20169;-68
2022/03/16 06:32:45;;;;;;;27.45;16.70;;;5.40;99.90;;;;;;5033684;28;20049;-67
2022/03/16 06:35:12;;;;;;;31.58;18.27;;;5.20;99.90;;;;;;5032480;28;20057;-68
2022/03/16 06:37:38;;;;;;;32.25;17.83;;;5.30;99.90;;;;;;5033619;28;20080;-67
2022/03/16 06:40:05;;;;;;;33.72;18.15;;;5.60;99.90;;;;;;5033663;28;20108;-67
2022/03/16 06:42:31;;;;;;;29.20;17.10;;;5.30;99.90;;;;;;5033742;28;20501;-67
2022/03/16 06:44:57;;;;;;;29.98;16.70;;;5.30;99.90;;;;;;5033516;28;20037;-67
2022/03/16 06:47:23;;;;;;;29.50;18.58;;;5.40;99.90;;;;;;5033560;28;20194;-67
2022/03/16 06:49:48;;;;;;;30.38;17.52;;;5.40;99.90;;;;;;5033462;28;20041;-67
2022/03/16 06:52:14;;;;;;;30.80;17.58;;;5.60;99.90;;;;;;5033454;28;20064;-67
2022/03/16 06:54:40;;;;;;;31.92;18.48;;;5.50;99.90;;;;;;5032950;28;20089;-67
2022/03/16 06:57:06;;;;;;;32.08;18.17;;;5.50;99.90;;;;;;5033438;28;20053;-67
2022/03/16 06:59:31;;;;;;;32.78;18.30;;;5.70;99.90;;;;;;5033383;28;20042;-67
2022/03/16 07:01:57;;;;;;;31.67;18.10;;;5.60;99.90;;;;;;5033437;28;20041;-67
2022/03/16 07:04:23;;;;;;;29.00;17.08;;;5.70;99.90;;;;;;5032114;28;20149;-67
2022/03/16 07:06:50;;;;;;;30.65;17.13;;;5.60;99.90;;;;;;5033449;28;20041;-68
2022/03/16 07:09:16;;;;;;;27.85;17.20;;;5.90;99.90;;;;;;5033287;28;20045;-67
2022/03/16 07:11:41;;;;;;;32.47;18.25;;;5.60;99.90;;;;;;5032137;28;20049;-67
2022/03/16 07:16:51;;;;;;;29.45;17.52;;;5.80;99.90;;;;;;5033830;28;20053;-67
2022/03/16 07:19:17;;;;;;;29.42;17.25;;;6.10;99.90;;;;;;5033432;28;20137;-67
2022/03/16 07:21:42;;;;;;;30.35;17.25;;;5.70;99.90;;;;;;5033238;28;20520;-67
2022/03/16 07:24:08;;;;;;;33.40;18.80;;;5.80;99.90;;;;;;5032524;28;20092;-68
2022/03/16 07:26:34;;;;;;;30.52;17.38;;;5.90;99.90;;;;;;5032464;28;20049;-67
2022/03/16 07:29:00;;;;;;;30.10;18.25;;;5.90;99.90;;;;;;5032764;28;20042;-68
2022/03/16 07:31:26;;;;;;;31.85;17.98;;;5.90;99.90;;;;;;5033150;28;20052;-67
2022/03/16 07:33:52;;;;;;;33.65;18.50;;;6.00;99.90;;;;;;5033094;28;20092;-67
2022/03/16 07:36:17;;;;;;;32.58;18.77;;;6.00;99.90;;;;;;5036520;28;20081;-68
2022/03/16 07:38:43;;;;;;;30.35;18.63;;;6.10;99.90;;;;;;5036890;28;20114;-67
2022/03/16 07:41:11;;;;;;;31.35;18.60;;;6.10;99.90;;;;;;5036808;28;20042;-68
2022/03/16 07:43:37;;;;;;;26.77;17.73;;;6.10;99.90;;;;;;5036697;28;20053;-67
2022/03/16 07:46:03;;;;;;;29.15;17.23;;;6.10;99.90;;;;;;5037369;28;20037;-67
2022/03/16 07:48:29;;;;;;;31.42;18.38;;;6.20;99.90;;;;;;5036871;28;20081;-68
2022/03/16 07:50:55;;;;;;;30.60;18.60;;;6.90;99.90;;;;;;5036660;28;20046;-68
2022/03/16 07:53:20;;;;;;;30.98;18.85;;;6.20;99.90;;;;;;5036160;28;20053;-67
2022/03/16 07:55:48;;;;;;;32.67;19.00;;;6.20;99.90;;;;;;5036509;28;20583;-68
2022/03/16 07:58:13;;;;;;;30.50;19.13;;;6.20;99.90;;;;;;5036522;28;20401;-67
2022/03/16 08:00:39;;;;;;;30.13;18.50;;;6.30;99.90;;;;;;5036634;28;20052;-67
2022/03/16 08:03:05;;;;;;;30.92;18.70;;;6.30;99.90;;;;;;5036463;28;20474;-66
2022/03/16 08:05:31;;;;;;;33.65;19.13;;;6.10;99.90;;;;;;5035256;28;20047;-67
2022/03/16 08:07:57;;;;;;;28.58;18.33;;;6.40;99.90;;;;;;5036300;28;20144;-67
2022/03/16 08:10:23;;;;;;;33.38;18.58;;;6.70;99.90;;;;;;5035457;28;20546;-68
2022/03/16 08:12:48;;;;;;;30.63;18.48;;;6.50;99.90;;;;;;5019043;28;20492;-68
2022/03/16 08:15:14;;;;;;;30.23;19.23;;;6.60;99.90;;;;;;5036053;28;20050;-68
2022/03/16 08:17:40;;;;;;;33.03;18.55;;;6.60;99.90;;;;;;5036320;28;20064;-68
2022/03/16 08:20:06;;;;;;;28.63;19.25;;;6.90;99.90;;;;;;5036211;28;20403;-69
2022/03/16 08:22:35;;;;;;;30.17;19.02;;;6.80;99.90;;;;;;5035683;28;20128;-67
2022/03/16 08:25:07;;;;;;;29.48;18.15;;;6.80;99.90;;;;;;5036147;28;20056;-68
2022/03/16 08:27:33;;;;;;;30.73;18.33;;;6.80;99.90;;;;;;5036285;28;20041;-68
2022/03/16 08:30:00;;;;;;;31.73;19.20;;;6.90;99.90;;;;;;5036482;28;20057;-67
2022/03/16 08:32:26;;;;;;;33.83;19.15;;;6.90;99.90;;;;;;5035048;28;20060;-67
2022/03/16 08:34:52;;;;;;;32.40;18.90;;;7.20;99.90;;;;;;5035690;28;20045;-67
2022/03/16 08:37:19;;;;;;;30.92;18.17;;;7.00;99.90;;;;;;5035924;28;20076;-67
2022/03/16 08:39:46;;;;;;;29.77;18.80;;;7.10;99.90;;;;;;5035895;28;20041;-68
2022/03/16 08:42:12;;;;;;;30.50;18.50;;;7.30;99.90;;;;;;5036042;28;20052;-68
2022/03/16 08:44:39;;;;;;;30.50;17.90;;;7.30;99.90;;;;;;5018133;28;20560;-69
2022/03/16 08:47:05;;;;;;;30.10;18.92;;;7.40;99.90;;;;;;5035349;28;20053;-68
2022/03/16 08:49:31;;;;;;;33.35;19.58;;;7.40;99.90;;;;;;5034671;28;20049;-68
2022/03/16 08:51:58;;;;;;;32.75;19.92;;;7.70;99.90;;;;;;5034904;28;20048;-70
2022/03/16 08:54:25;;;;;;;36.28;20.13;;;7.50;99.90;;;;;;5034624;28;20050;-69
2022/03/16 08:56:51;;;;;;;30.55;19.50;;;7.60;99.90;;;;;;5034129;28;20120;-67
2022/03/16 08:59:19;;;;;;;30.88;18.90;;;7.60;99.90;;;;;;5011237;28;20602;-68
2022/03/16 09:01:45;;;;;;;28.92;18.80;;;7.70;99.90;;;;;;5016071;28;20045;-67
2022/03/16 09:04:10;;;;;;;31.13;19.10;;;7.70;99.90;;;;;;5009955;28;20060;-68
2022/03/16 09:06:36;;;;;;;33.83;19.83;;;7.80;99.90;;;;;;5012815;28;20622;-67
2022/03/16 09:09:02;;;;;;;31.15;19.65;;;7.90;99.90;;;;;;5014473;28;20273;-68
2022/03/16 09:11:28;;;;;;;33.83;20.10;;;7.90;99.90;;;;;;5013319;28;20050;-67
2022/03/16 09:13:55;;;;;;;31.40;19.13;;;8.00;99.90;;;;;;5016077;28;20038;-68
2022/03/16 09:16:20;;;;;;;34.55;19.83;;;8.10;99.90;;;;;;5015866;28;20065;-68
2022/03/16 09:18:49;;;;;;;32.03;18.17;;;8.10;99.90;;;;;;5014678;28;20044;-68
2022/03/16 09:21:15;;;;;;;34.03;19.50;;;8.10;99.90;;;;;;5016081;28;20053;-68
2022/03/16 09:23:41;;;;;;;36.40;21.45;;;8.60;99.90;;;;;;5017922;28;20041;-68
2022/03/16 09:26:07;;;;;;;33.95;20.10;;;8.60;99.90;;;;;;5019496;28;20501;-68
2022/03/16 09:28:33;;;;;;;33.00;20.40;;;8.80;99.90;;;;;;5016716;28;20057;-68
2022/03/16 09:30:58;;;;;;;34.63;19.42;;;8.50;99.90;;;;;;5018214;28;20075;-68
2022/03/16 09:33:24;;;;;;;32.70;19.00;;;9.00;99.90;;;;;;5019996;28;20505;-68
2022/03/16 09:35:54;;;;;;;28.00;16.77;;;8.60;99.90;;;;;;5013137;28;20569;-68
2022/03/16 09:38:19;;;;;;;30.60;17.15;;;8.70;99.90;;;;;;5011171;28;20037;-68
2022/03/16 09:40:52;;;;;;;28.02;16.50;;;8.70;99.90;;;;;;5015027;28;20048;-67
2022/03/16 09:43:19;;;;;;;27.00;16.45;;;8.90;99.90;;;;;;5017350;28;20110;-68
2022/03/16 09:45:57;;;;;;;26.83;16.55;;;9.00;99.90;;;;;;5018793;28;20038;-68
2022/03/16 09:48:23;;;;;;;27.95;15.50;;;9.00;99.90;;;;;;5013407;28;20050;-67
2022/03/16 09:50:53;;;;;;;24.25;14.32;;;9.10;99.90;;;;;;5018911;28;20093;-67
2022/03/16 09:53:20;;;;;;;23.17;14.07;;;9.10;99.90;;;;;;5015385;28;20057;-68
2022/03/16 09:55:46;;;;;;;23.92;14.25;;;9.20;99.90;;;;;;5015710;28;20477;-68
2022/03/16 09:58:12;;;;;;;21.38;13.88;;;9.30;99.90;;;;;;5015998;28;20088;-68
2022/03/16 10:00:38;;;;;;;23.52;13.85;;;9.30;99.90;;;;;;5012470;28;20073;-68
2022/03/16 10:03:04;;;;;;;22.45;13.63;;;9.40;99.90;;;;;;5015778;28;20569;-68
2022/03/16 10:05:31;;;;;;;21.65;13.48;;;9.50;99.90;;;;;;5016750;28;20465;-68
2022/03/16 10:08:02;;;;;;;22.00;12.40;;;9.60;99.90;;;;;;5015717;28;20076;-69
2022/03/16 10:13:30;;;;;;;17.52;11.20;;;9.70;99.90;;;;;;5016653;28;20052;-68
2022/03/16 10:16:10;;;;;;;17.30;11.00;;;10.00;99.90;;;;;;5012156;28;20053;-68
2022/03/16 10:18:37;;;;;;;21.83;12.85;;;9.90;99.90;;;;;;5016690;28;20041;-69
2022/03/16 10:21:04;;;;;;;19.63;12.00;;;10.10;99.90;;;;;;5011904;28;20452;-68
2022/03/16 10:23:33;;;;;;;17.98;11.50;;;10.00;99.90;;;;;;5018834;28;20072;-68
2022/03/16 10:26:00;;;;;;;18.90;11.27;;;10.00;99.90;;;;;;5013497;28;20057;-68
2022/03/16 10:28:27;;;;;;;18.20;11.52;;;10.10;99.90;;;;;;5013508;28;20119;-68
2022/03/16 10:31:02;;;;;;;19.98;12.38;;;9.80;99.90;;;;;;5011056;28;20056;-68
2022/03/16 10:33:30;;;;;;;18.08;10.68;;;10.20;99.90;;;;;;5013662;28;20077;-68
2022/03/16 10:35:56;;;;;;;16.38;11.02;;;10.20;99.90;;;;;;5013264;28;20057;-67
2022/03/16 10:38:22;;;;;;;18.30;10.70;;;10.30;99.90;;;;;;5018173;28;20087;-68
2022/03/16 10:40:49;;;;;;;19.00;11.10;;;10.40;99.90;;;;;;5014926;28;20144;-68
2022/03/16 10:49:03;;;;;;;16.33;11.35;;;10.40;99.90;;;;;;5010710;28;20141;-67
2022/03/16 10:51:29;;;;;;;16.08;10.90;;;10.60;99.90;;;;;;5017087;28;20049;-68
2022/03/16 10:53:57;;;;;;;16.85;10.32;;;10.70;99.90;;;;;;5011493;28;20046;-65
2022/03/16 10:56:24;;;;;;;13.65;9.00;;;10.80;99.90;;;;;;5011600;28;20165;-67
2022/03/16 10:58:53;;;;;;;15.85;9.43;;;10.80;99.90;;;;;;4994658;28;20061;-67
2022/03/16 11:01:21;;;;;;;16.25;9.20;;;10.90;99.90;;;;;;5014131;28;20073;-67
2022/03/16 11:03:49;;;;;;;14.38;8.45;;;10.90;99.90;;;;;;5011871;28;20100;-67
2022/03/16 11:06:20;;;;;;;16.92;9.50;;;11.00;99.90;;;;;;5017238;28;20050;-67
2022/03/16 11:08:50;;;;;;;14.00;8.20;;;11.00;99.90;;;;;;5010773;28;20128;-66
2022/03/16 11:14:04;;;;;;;14.02;9.23;;;11.10;99.90;;;;;;5018472;28;20400;-67
2022/03/16 11:16:32;;;;;;;14.88;10.02;;;11.80;99.90;;;;;;5021988;28;20456;-68
2022/03/16 11:19:04;;;;;;;16.10;8.90;;;11.10;99.90;;;;;;5012489;28;20494;-68
2022/03/16 11:21:45;;;;;;;14.68;9.13;;;11.20;99.90;;;;;;5015613;28;20056;-68
2022/03/16 11:24:22;;;;;;;16.88;9.63;;;11.20;99.90;;;;;;5012580;28;20792;-67
2022/03/16 11:27:34;;;;;;;15.63;9.80;;;11.20;99.90;;;;;;5016768;28;20046;-67
2022/03/16 11:30:07;;;;;;;14.48;9.20;;;11.30;99.90;;;;;;5000586;28;20049;-67
2022/03/16 11:32:39;;;;;;;15.45;10.32;;;11.30;99.90;;;;;;5007381;28;20058;-67
2022/03/16 11:35:16;;;;;;;15.70;9.65;;;11.40;99.90;;;;;;5016359;28;20875;-67
2022/03/16 11:37:46;;;;;;;15.52;9.57;;;11.40;99.90;;;;;;5018470;28;20561;-68
2022/03/16 11:40:20;;;;;;;17.10;10.02;;;11.50;99.90;;;;;;5012725;28;20123;-67
2022/03/16 11:43:04;;;;;;;16.48;10.07;;;11.60;99.90;;;;;;5010505;28;20050;-67
2022/03/16 11:45:41;;;;;;;15.25;8.65;;;11.70;99.90;;;;;;5017718;28;20141;-67
2022/03/16 11:48:31;;;;;;;13.57;8.73;;;11.70;99.90;;;;;;5017925;28;20049;-67
2022/03/16 11:51:11;;;;;;;13.35;8.40;;;11.70;99.90;;;;;;5014731;28;20053;-68
2022/03/16 11:53:47;;;;;;;13.65;9.38;;;11.80;99.90;;;;;;5011725;28;20166;-67
2022/03/16 11:56:21;;;;;;;14.70;8.75;;;11.80;99.90;;;;;;5013838;28;20494;-67
2022/03/16 11:58:48;;;;;;;12.35;8.40;;;11.80;99.90;;;;;;5020745;28;20069;-67
2022/03/16 12:01:34;;;;;;;12.13;8.25;;;11.90;99.90;;;;;;5019298;28;20046;-67
2022/03/16 12:04:15;;;;;;;14.98;7.72;;;12.00;99.90;;;;;;5015084;28;20044;-67
2022/03/16 12:07:03;;;;;;;12.13;7.97;;;12.00;99.90;;;;;;5016377;28;20503;-67
2022/03/16 12:09:46;;;;;;;14.35;8.13;;;12.10;99.90;;;;;;5017278;28;20593;-67
2022/03/16 12:15:12;;;;;;;12.90;7.82;;;12.20;99.90;;;;;;5011987;28;20134;-70
2022/03/16 12:18:01;;;;;;;13.65;7.85;;;12.30;99.90;;;;;;5014958;28;20057;-70
2022/03/16 12:20:34;;;;;;;14.70;7.85;;;12.30;99.90;;;;;;5014595;28;20121;-71
2022/03/16 12:23:09;;;;;;;16.08;8.55;;;12.30;99.90;;;;;;5013808;28;20148;-71
2022/03/16 12:25:39;;;;;;;12.40;7.90;;;12.40;99.90;;;;;;5020501;28;20046;-72
2022/03/16 12:31:00;;;;;;;11.25;6.20;;;12.40;99.90;;;;;;5015736;28;20085;-72
2022/03/16 12:33:31;;;;;;;11.95;6.60;;;12.50;99.90;;;;;;5016756;28;20045;-71
2022/03/16 12:36:04;;;;;;;14.48;7.82;;;12.50;99.90;;;;;;5016980;28;20386;-70
2022/03/16 12:38:32;;;;;;;11.18;6.38;;;12.50;99.90;;;;;;5014954;28;20100;-71
2022/03/16 12:43:47;;;;;;;12.95;7.40;;;12.60;99.90;;;;;;5015230;28;20128;-71
2022/03/16 12:46:47;;;;;;;10.98;6.30;;;12.60;99.90;;;;;;5018463;28;20057;-71
2022/03/16 12:49:15;;;;;;;11.88;6.50;;;12.70;99.90;;;;;;5017071;28;20046;-71
2022/03/16 12:51:45;;;;;;;10.45;6.50;;;12.70;99.90;;;;;;5013582;28;20089;-71
2022/03/16 12:54:14;;;;;;;10.43;6.72;;;12.70;99.90;;;;;;5018877;28;20056;-71
2022/03/16 12:56:41;;;;;;;10.50;6.28;;;12.80;99.90;;;;;;5014967;28;20517;-72
2022/03/16 12:59:08;;;;;;;11.27;6.38;;;12.80;99.90;;;;;;5015494;28;20518;-71
2022/03/16 13:01:34;;;;;;;13.05;7.55;;;12.80;99.90;;;;;;5013013;28;20141;-71
2022/03/16 13:04:05;;;;;;;10.05;6.38;;;12.80;99.90;;;;;;5009364;28;20080;-72
2022/03/16 13:06:34;;;;;;;10.98;6.47;;;12.90;99.90;;;;;;5011585;28;20065;-71